Flight Track Log - Related Links

Times and Time Zones

All times are in EST time to prevent confusion due to time zone crossing. See the AAL1260 flight status page for this flight to view local times or setup timezone preferences in your user account.

Time Position Orientation Groundspeed Altitude Reporting Facility
EST Latitude Longitude Course Direction KTS MPH feet Rate Location/Type
Wed 10:46:11 PM 32.8833 -97.0333 164° South 158 182 1,700  Level Dallas / Fort Worth TRACON
Wed 10:47:23 PM 32.8333 -97.0167 164° South 208 239 4,200 2,227 Climbing Dallas / Fort Worth TRACON
Wed 10:48:23 PM 32.7667 -96.9667 148° Southeast 299 344 6,600 2,667 Climbing Dallas / Fort Worth TRACON
Wed 10:49:29 PM 32.7667 -96.8500 90° East 327 376 9,800 2,387 Climbing Dallas / Fort Worth TRACON
Wed 10:51:29 PM 32.9317 -96.8072 12° North 350 403 14,000 2,354 Climbing Fort Worth Center
Wed 10:52:30 PM 33.0403 -96.8094 359° North 383 441 16,900 2,459 Climbing Fort Worth Center
Wed 10:53:31 PM 33.1494 -96.8128 359° North 390 449 19,000 2,311 Climbing Fort Worth Center
Wed 10:54:32 PM 33.2739 -96.8167 359° North 413 475 21,600 2,213 Climbing Fort Worth Center
Wed 10:55:33 PM 33.3883 -96.8206 358° North 412 474 23,500 1,672 Climbing Fort Worth Center
Wed 10:56:34 PM 33.4906 -96.7978 11° North 442 509 25,000 1,279 Climbing Fort Worth Center
Wed 10:57:35 PM 33.6058 -96.7247 28° Northeast 469 540 26,100 1,220 Climbing Fort Worth Center
Wed 10:58:37 PM 33.7464 -96.6331 28° Northeast 478 550 27,500 1,122 Climbing Fort Worth Center
Wed 10:59:38 PM 33.8664 -96.5561 28° Northeast 488 562 28,400 984 Climbing Fort Worth Center
Wed 11:00:39 PM 33.9892 -96.4758 28° Northeast 498 573 29,500 1,328 Climbing Fort Worth Center
Wed 11:01:40 PM 34.1111 -96.3911 30° Northeast 505 581 31,100 1,426 Climbing Fort Worth Center
Wed 11:02:41 PM 34.2331 -96.2894 35° Northeast 502 578 32,400 885 Climbing Fort Worth Center
Wed 11:03:42 PM 34.3486 -96.1950 34° Northeast 505 581 32,900 295 Climbing Fort Worth Center
Wed 11:04:43 PM 34.4658 -96.0992 34° Northeast 509 586 33,000 49 Climbing Fort Worth Center
Wed 11:05:44 PM 34.5822 -96.0036 34° Northeast 507 583 33,000 49 Level Fort Worth Center
Wed 11:06:45 PM 34.6950 -95.9094 34° Northeast 499 574 33,100  Climbing Fort Worth Center
Wed 11:07:46 PM 34.8119 -95.8119 34° Northeast 510 587 33,000 -49 Descending Fort Worth Center
Wed 11:08:47 PM 34.9192 -95.7194 35° Northeast 506 582 33,000 -49 Level Fort Worth Center
Wed 11:09:48 PM 35.0519 -95.5922 38° Northeast 505 581 32,900 -49 Descending Fort Worth Center
Wed 11:10:49 PM 35.1633 -95.4872 38° Northeast 506 582 32,900 49 Level Fort Worth Center
Wed 11:11:50 PM 35.2769 -95.3806 37° Northeast 512 589 33,000 103 Climbing Fort Worth Center
Wed 11:12:45 PM 35.3661 -95.2931 39° Northeast 514 592 33,100 52 Climbing Memphis Center
Wed 11:13:46 PM 35.4792 -95.1864 38° Northeast 513 590 33,100 -49 Level Memphis Center
Wed 11:14:47 PM 35.5906 -95.0800 38° Northeast 511 588 33,000 -52 Descending Memphis Center
Wed 11:15:42 PM 35.7022 -94.9717 38° Northeast 510 587 33,000  Level Kansas City Center
Wed 11:16:41 PM 35.8139 -94.8650 38° Northeast 509 586 33,000  Level Kansas City Center
Wed 11:17:44 PM 35.9244 -94.7569 38° Northeast 510 587 33,000  Level Kansas City Center
Wed 11:18:45 PM 36.0353 -94.6494 38° Northeast 510 587 33,000 -49 Level Kansas City Center
Wed 11:19:46 PM 36.1461 -94.5422 38° Northeast 509 586 32,900  Descending Kansas City Center
Wed 11:20:46 PM 36.2567 -94.4328 39° Northeast 510 587 33,000 50 Climbing Kansas City Center
Wed 11:21:46 PM 36.3672 -94.3242 38° Northeast 509 586 33,000  Level Kansas City Center
Wed 11:22:48 PM 36.4789 -94.2156 38° Northeast 510 587 33,000  Level Kansas City Center
Wed 11:23:49 PM 36.5897 -94.1058 38° Northeast 510 587 33,000 49 Level Kansas City Center
Wed 11:24:50 PM 36.7011 -93.9958 38° Northeast 510 587 33,100  Climbing Kansas City Center
Wed 11:25:50 PM 36.8325 -93.8639 39° Northeast 508 585 33,000  Descending Kansas City Center
Wed 11:26:49 PM 36.9342 -93.7631 38° Northeast 503 579 33,100 -50 Climbing Kansas City Center
Wed 11:27:50 PM 37.0425 -93.6525 39° Northeast 501 577 32,900 -97 Descending Kansas City Center
Wed 11:28:53 PM 37.1506 -93.5431 39° Northeast 499 574 32,900  Level Kansas City Center
Wed 11:29:54 PM 37.2550 -93.4258 42° Northeast 502 578 32,900 50 Level Kansas City Center
Wed 11:30:53 PM 37.3444 -93.2833 52° Northeast 515 593 33,000 50 Climbing Kansas City Center
Wed 11:31:55 PM 37.4364 -93.1431 50° Northeast 518 596 33,000 50 Level Kansas City Center
Wed 11:32:54 PM 37.5308 -93.0022 50° Northeast 521 600 33,100 50 Climbing Kansas City Center
Wed 11:33:55 PM 37.6256 -92.8600 50° Northeast 526 605 33,100  Level Kansas City Center
Wed 11:34:58 PM 37.7114 -92.7239 51° Northeast 529 609 33,100 -98 Level Kansas City Center
Wed 11:35:58 PM 37.8239 -92.5567 50° Northeast 524 603 32,900 -1,059 Descending Kansas City Center
Wed 11:36:57 PM 37.9161 -92.4161 50° Northeast 520 598 31,000 -2,150 Descending Kansas City Center
Wed 11:37:58 PM 38.0078 -92.2753 50° Northeast 520 598 28,600 -2,323 Descending Kansas City Center
Wed 11:39:01 PM 38.0936 -92.1428 51° Northeast 496 571 26,200 -2,274 Descending Kansas City Center
Wed 11:40:02 PM 38.1767 -92.0133 51° Northeast 484 557 23,900 -2,331 Descending Kansas City Center
Wed 11:41:02 PM 38.2586 -91.8872 50° Northeast 472 543 21,500 -2,182 Descending Kansas City Center
Wed 11:42:03 PM 38.3364 -91.7658 51° Northeast 457 526 19,500 -2,016 Descending Kansas City Center
Wed 11:43:04 PM 38.4019 -91.6436 56° Northeast 437 503 17,400 -2,050 Descending Kansas City Center
Wed 11:44:03 PM 38.4447 -91.5078 68° East 421 484 15,400 -2,017 Descending Kansas City Center
Wed 11:45:03 PM 38.4744 -91.3756 74° East 405 466 13,400 -1,951 Descending Kansas City Center
Wed 11:46:06 PM 38.5256 -91.2567 61° Northeast 398 458 11,400 -1,210 Descending Kansas City Center
Wed 11:47:07 PM 38.5928 -91.1569 49° Northeast 382 440 10,900 -639 Descending Kansas City Center
Wed 11:48:08 PM 38.6358 -91.0447 64° Northeast 361 415 10,100 -942 Descending Kansas City Center
Wed 11:49:08 PM 38.6797 -90.9422 61° Northeast 338 389 9,000 -1,328 Descending Kansas City Center
Wed 11:50:10 PM 38.7242 -90.8461 59° Northeast 322 371 7,400 -1,512 Descending Kansas City Center
Wed 11:51:11 PM 38.7675 -90.7497 60° Northeast 314 361 5,900 -1,200 Descending Kansas City Center
Wed 11:52:10 PM 38.8078 -90.6597 60° Northeast 302 348 5,000 -1,140 Descending Kansas City Center
Wed 11:53:12 PM 38.8419 -90.5797 61° Northeast 273 314 3,600 -1,033 Descending Kansas City Center
Wed 11:54:12 PM 38.8194 -90.5122 113° Southeast 201 231 2,900 -706 Descending Kansas City Center
Wed 11:55:11 PM 38.7961 -90.4661 123° Southeast 171 197 2,200 -694 Descending Kansas City Center
Wed 11:56:13 PM 38.7775 -90.4281 122° Southeast 146 168 1,500 -629 Descending Kansas City Center
Wed 11:57:15 PM 38.7614 -90.3939 121° Southeast 123 142 900 -439 Descending Kansas City Center
Wed 11:58:16 PM 38.7447 -90.3594 122° Southeast 121 139 600 -295 Descending Kansas City Center
Thu 12:00:00 AM 38.7333 -90.3667 90° East  Level FlightAware Approximate

Login

Don't have an account? Register now (free) for customized features, flight alerts, and more!